Time;durP1;ratioP1;P1;durP2;ratioP2;P2;SDS_P1;SDS_P2;PMS_P1;PMS_P2;Temp;Humidity;BMP_temperature;BMP_pressure;BME280_temperature;BME280_humidity;BME280_pressure;Samples;Min_cycle;Max_cycle;Signal;HPM_P1;HPM_P2
2023/07/22 00:00:39;;;;;;;0.00;0.00;;;13.00;100.00;;;;;;5106262;28;20112;-78
2023/07/22 00:03:06;;;;;;;0.00;0.00;;;13.00;100.00;;;;;;5105759;28;20040;-77
2023/07/22 00:05:33;;;;;;;0.00;0.00;;;13.10;100.00;;;;;;5090213;28;20388;-77
2023/07/22 00:08:00;;;;;;;0.00;0.00;;;13.10;100.00;;;;;;5091510;28;20051;-77
2023/07/22 00:10:27;;;;;;;0.00;0.00;;;13.10;100.00;;;;;;5099676;28;20170;-76
2023/07/22 00:12:54;;;;;;;0.00;0.00;;;13.20;100.00;;;;;;5091020;27;20486;-76
2023/07/22 00:15:23;;;;;;;0.00;0.00;;;13.10;100.00;;;;;;5105229;27;20109;-77
2023/07/22 00:17:50;;;;;;;0.00;0.00;;;13.10;100.00;;;;;;5102813;27;20054;-76
2023/07/22 00:20:19;;;;;;;0.00;0.00;;;13.20;100.00;;;;;;5087399;28;20039;-76
2023/07/22 00:22:46;;;;;;;0.00;0.00;;;13.20;100.00;;;;;;5108696;28;20399;-76
2023/07/22 00:25:13;;;;;;;0.00;0.00;;;13.20;100.00;;;;;;5114627;27;20411;-76
2023/07/22 00:27:42;;;;;;;0.00;0.00;;;13.20;100.00;;;;;;5111191;27;20058;-76
2023/07/22 00:30:09;;;;;;;0.00;0.00;;;13.10;100.00;;;;;;5089625;27;20461;-76
2023/07/22 00:32:40;;;;;;;0.00;0.00;;;13.10;100.00;;;;;;5107445;27;20047;-76
2023/07/22 00:35:09;;;;;;;0.00;0.00;;;13.10;100.00;;;;;;5100752;28;20122;-76
2023/07/22 00:37:36;;;;;;;0.00;0.00;;;13.10;100.00;;;;;;5103511;28;20055;-76
2023/07/22 00:40:06;;;;;;;0.00;0.00;;;13.10;100.00;;;;;;5109857;27;20052;-76
2023/07/22 00:42:33;;;;;;;0.00;0.00;;;13.10;100.00;;;;;;5106809;27;20048;-75
2023/07/22 00:44:59;;;;;;;0.00;0.00;;;13.10;100.00;;;;;;5099963;27;20672;-76
2023/07/22 00:47:27;;;;;;;0.00;0.00;;;13.10;100.00;;;;;;5118320;27;20764;-76
2023/07/22 00:49:55;;;;;;;0.00;0.00;;;13.10;100.00;;;;;;5114622;27;20100;-76
2023/07/22 00:52:22;;;;;;;0.00;0.00;;;13.00;100.00;;;;;;5091172;27;20039;-76
2023/07/22 00:54:49;;;;;;;0.00;0.00;;;13.00;100.00;;;;;;5108716;27;20077;-76
2023/07/22 00:57:16;;;;;;;0.00;0.00;;;13.00;100.00;;;;;;5106814;27;20121;-76
2023/07/22 00:59:43;;;;;;;0.00;0.00;;;13.00;100.00;;;;;;5082778;27;20122;-76
2023/07/22 01:02:10;;;;;;;0.00;0.00;;;13.00;100.00;;;;;;5087526;27;20067;-75
2023/07/22 01:04:37;;;;;;;0.00;0.00;;;13.00;100.00;;;;;;5087066;28;20063;-75
2023/07/22 01:07:08;;;;;;;0.00;0.00;;;13.00;100.00;;;;;;5101058;28;20140;-76
2023/07/22 01:09:40;;;;;;;0.00;0.00;;;13.00;100.00;;;;;;5106222;28;20044;-75
2023/07/22 01:12:08;;;;;;;0.00;0.00;;;12.90;100.00;;;;;;5083089;28;20061;-75
2023/07/22 01:14:37;;;;;;;0.00;0.00;;;12.90;100.00;;;;;;5086553;28;20486;-75
2023/07/22 01:17:06;;;;;;;0.00;0.00;;;12.90;100.00;;;;;;5096953;28;20051;-75
2023/07/22 01:19:34;;;;;;;0.00;0.00;;;12.90;100.00;;;;;;5091234;28;20476;-76
2023/07/22 01:22:03;;;;;;;0.00;0.00;;;12.90;100.00;;;;;;5106165;28;20055;-76
2023/07/22 01:24:31;;;;;;;0.00;0.00;;;12.80;100.00;;;;;;5100437;28;20117;-75
2023/07/22 01:26:58;;;;;;;0.00;0.00;;;12.80;100.00;;;;;;5099851;28;20047;-75
2023/07/22 01:29:26;;;;;;;0.00;0.00;;;12.80;100.00;;;;;;5080643;28;20840;-76
2023/07/22 01:31:54;;;;;;;0.00;0.00;;;12.80;100.00;;;;;;5102827;28;20075;-76
2023/07/22 01:34:22;;;;;;;0.00;0.00;;;12.70;100.00;;;;;;5096609;28;20043;-75
2023/07/22 01:36:49;;;;;;;0.00;0.00;;;12.60;100.00;;;;;;5104219;28;20174;-76
2023/07/22 01:39:16;;;;;;;0.00;0.00;;;12.60;100.00;;;;;;5097054;28;20143;-76
2023/07/22 01:41:44;;;;;;;0.00;0.00;;;12.50;100.00;;;;;;5081680;28;20475;-76
2023/07/22 01:44:10;;;;;;;0.00;0.00;;;12.50;100.00;;;;;;5093379;28;20139;-76
2023/07/22 01:46:37;;;;;;;0.00;0.00;;;12.40;100.00;;;;;;5077727;28;20071;-75
2023/07/22 01:49:11;;;;;;;0.00;0.00;;;12.40;100.00;;;;;;5102685;28;20513;-75
2023/07/22 01:51:38;;;;;;;0.00;0.00;;;12.30;100.00;;;;;;5084101;28;20044;-75
2023/07/22 01:54:05;;;;;;;0.00;0.00;;;12.30;100.00;;;;;;5087596;28;20479;-76
2023/07/22 01:56:32;;;;;;;0.00;0.00;;;12.20;100.00;;;;;;5104712;28;20059;-76
2023/07/22 01:58:59;;;;;;;0.00;0.00;;;12.10;100.00;;;;;;5084723;28;20056;-76
2023/07/22 02:01:25;;;;;;;0.00;0.00;;;12.10;100.00;;;;;;5105725;28;20052;-76
2023/07/22 02:03:52;;;;;;;0.00;0.00;;;12.10;100.00;;;;;;5108434;28;20092;-76
2023/07/22 02:06:19;;;;;;;0.00;0.00;;;12.00;100.00;;;;;;5105862;28;20047;-76
2023/07/22 02:08:46;;;;;;;0.00;0.00;;;12.00;100.00;;;;;;5090299;28;20068;-76
2023/07/22 02:11:13;;;;;;;0.00;0.00;;;12.00;100.00;;;;;;5102752;28;20082;-76
2023/07/22 02:13:40;;;;;;;0.00;0.00;;;12.00;100.00;;;;;;5090255;28;20073;-77
2023/07/22 02:16:11;;;;;;;0.00;0.00;;;12.00;100.00;;;;;;5105605;28;20051;-76
2023/07/22 02:18:38;;;;;;;0.00;0.00;;;12.00;100.00;;;;;;5084148;28;20140;-77
2023/07/22 02:21:05;;;;;;;0.00;0.00;;;12.00;100.00;;;;;;5108049;28;20795;-77
2023/07/22 02:23:32;;;;;;;0.00;0.00;;;11.90;100.00;;;;;;5107186;28;20051;-76
2023/07/22 02:25:58;;;;;;;0.00;0.00;;;11.90;100.00;;;;;;5087971;28;20169;-76
2023/07/22 02:28:25;;;;;;;0.00;0.00;;;11.90;100.00;;;;;;5087807;28;20051;-77
2023/07/22 02:30:53;;;;;;;0.00;0.00;;;11.90;100.00;;;;;;5083716;28;20070;-76
2023/07/22 02:33:21;;;;;;;0.00;0.00;;;11.80;100.00;;;;;;5078714;28;20077;-76
2023/07/22 02:35:49;;;;;;;0.00;0.00;;;11.80;100.00;;;;;;5092135;28;20078;-76
2023/07/22 02:38:16;;;;;;;0.00;0.00;;;11.80;100.00;;;;;;5085242;28;20060;-76
2023/07/22 02:40:43;;;;;;;0.00;0.00;;;11.80;100.00;;;;;;5104315;28;20104;-76
2023/07/22 02:43:09;;;;;;;0.00;0.00;;;11.80;100.00;;;;;;5101636;28;20515;-77
2023/07/22 02:45:37;;;;;;;0.00;0.00;;;11.70;100.00;;;;;;5083885;28;20056;-76
2023/07/22 02:48:04;;;;;;;0.00;0.00;;;11.70;100.00;;;;;;5079584;28;20044;-76
2023/07/22 02:50:31;;;;;;;0.00;0.00;;;11.70;100.00;;;;;;5100584;28;20036;-77
2023/07/22 02:52:58;;;;;;;0.00;0.00;;;11.70;100.00;;;;;;5090265;28;20058;-76
2023/07/22 02:55:25;;;;;;;0.00;0.00;;;11.70;100.00;;;;;;5109038;28;20098;-76
2023/07/22 02:57:52;;;;;;;0.00;0.00;;;11.70;100.00;;;;;;5111021;27;20842;-76
2023/07/22 03:00:23;;;;;;;0.00;0.00;;;11.70;100.00;;;;;;5087097;28;20089;-76
2023/07/22 03:03:00;;;;;;;0.00;0.00;;;11.70;100.00;;;;;;5090493;28;20055;-76
2023/07/22 03:05:29;;;;;;;0.00;0.00;;;11.60;100.00;;;;;;5083255;28;20579;-76
2023/07/22 03:07:57;;;;;;;0.00;0.00;;;11.70;100.00;;;;;;5109117;28;20724;-76
2023/07/22 03:10:28;;;;;;;0.00;0.00;;;11.60;100.00;;;;;;5092746;28;20043;-76
2023/07/22 03:12:56;;;;;;;0.00;0.00;;;11.70;100.00;;;;;;5106607;27;20141;-76
2023/07/22 03:15:25;;;;;;;0.00;0.00;;;11.60;100.00;;;;;;5108525;27;20059;-76
2023/07/22 03:17:53;;;;;;;0.00;0.00;;;11.60;100.00;;;;;;5109748;28;20516;-76
2023/07/22 03:20:21;;;;;;;0.00;0.00;;;11.60;100.00;;;;;;5102440;28;20044;-76
2023/07/22 03:22:49;;;;;;;0.00;0.00;;;11.60;100.00;;;;;;5100178;28;20159;-76
2023/07/22 03:25:16;;;;;;;0.00;0.00;;;11.60;100.00;;;;;;5104138;28;20043;-76
2023/07/22 03:27:44;;;;;;;0.00;0.00;;;11.60;100.00;;;;;;5109544;27;20059;-76
2023/07/22 03:30:16;;;;;;;0.00;0.00;;;11.50;100.00;;;;;;5108004;27;20044;-76
2023/07/22 03:32:47;;;;;;;0.00;0.00;;;11.60;100.00;;;;;;5104390;28;20043;-76
2023/07/22 03:35:14;;;;;;;0.00;0.00;;;11.60;100.00;;;;;;5108637;28;20552;-76
2023/07/22 03:37:41;;;;;;;0.00;0.00;;;11.60;100.00;;;;;;5086352;28;20061;-76
2023/07/22 03:40:19;;;;;;;0.00;0.00;;;11.60;100.00;;;;;;5111514;27;20084;-76
2023/07/22 03:42:50;;;;;;;0.00;0.00;;;11.60;100.00;;;;;;5104390;27;20056;-76
2023/07/22 03:45:18;;;;;;;0.00;0.00;;;11.60;100.00;;;;;;5092587;28;20079;-77
2023/07/22 03:47:47;;;;;;;0.00;0.00;;;11.60;100.00;;;;;;5091015;28;20071;-76
2023/07/22 03:50:14;;;;;;;0.00;0.00;;;11.60;100.00;;;;;;5103857;28;20187;-76
2023/07/22 03:52:41;;;;;;;0.00;0.00;;;11.60;100.00;;;;;;5091369;28;20043;-76
2023/07/22 03:55:08;;;;;;;0.00;0.00;;;11.60;100.00;;;;;;5091150;28;20478;-77
2023/07/22 03:57:35;;;;;;;0.00;0.00;;;11.70;100.00;;;;;;5106616;28;20126;-76
2023/07/22 04:00:05;;;;;;;0.00;0.00;;;11.70;100.00;;;;;;5086348;28;20139;-76
2023/07/22 04:02:32;;;;;;;0.00;0.00;;;11.80;100.00;;;;;;5110717;27;20055;-76
2023/07/22 04:04:59;;;;;;;0.00;0.00;;;11.90;100.00;;;;;;5090744;28;20051;-76
2023/07/22 04:07:26;;;;;;;0.00;0.00;;;11.90;100.00;;;;;;5105285;28;20049;-76
2023/07/22 04:09:53;;;;;;;0.00;0.00;;;12.00;100.00;;;;;;5107296;28;20051;-76
2023/07/22 04:12:19;;;;;;;0.00;0.00;;;12.00;100.00;;;;;;5105484;27;20567;-76
2023/07/22 04:14:46;;;;;;;0.00;0.00;;;12.00;100.00;;;;;;5104741;27;20307;-76
2023/07/22 04:17:15;;;;;;;0.00;0.00;;;12.10;100.00;;;;;;5110939;28;20090;-76
2023/07/22 04:19:45;;;;;;;0.00;0.00;;;12.10;100.00;;;;;;5094733;28;20052;-76
2023/07/22 04:22:12;;;;;;;0.00;0.00;;;12.10;100.00;;;;;;5095987;28;20113;-76
2023/07/22 04:24:39;;;;;;;0.00;0.00;;;12.10;100.00;;;;;;5101643;28;20062;-80
2023/07/22 04:27:06;;;;;;;0.00;0.00;;;12.20;100.00;;;;;;5103590;27;20097;-81
2023/07/22 04:29:33;;;;;;;0.00;0.00;;;12.30;100.00;;;;;;5097507;28;20047;-81
2023/07/22 04:32:00;;;;;;;0.00;0.00;;;12.30;100.00;;;;;;5088575;28;20519;-81
2023/07/22 04:34:34;;;;;;;0.00;0.00;;;12.40;100.00;;;;;;5111897;28;20043;-80
2023/07/22 04:37:01;;;;;;;0.00;0.00;;;12.50;100.00;;;;;;5110834;27;20097;-81
2023/07/22 04:39:29;;;;;;;0.00;0.00;;;12.50;100.00;;;;;;5109202;28;20044;-81
2023/07/22 04:41:55;;;;;;;0.00;0.00;;;12.50;100.00;;;;;;5109524;28;20075;-81
2023/07/22 04:44:23;;;;;;;0.00;0.00;;;12.60;100.00;;;;;;5111978;28;20047;-81
2023/07/22 04:46:51;;;;;;;0.00;0.00;;;12.70;100.00;;;;;;5114270;27;20048;-81
2023/07/22 04:49:18;;;;;;;0.00;0.00;;;12.70;100.00;;;;;;5113242;27;20090;-81
2023/07/22 04:51:49;;;;;;;0.00;0.00;;;12.80;100.00;;;;;;5092311;28;20043;-82
2023/07/22 04:54:23;;;;;;;0.00;0.00;;;12.80;100.00;;;;;;5107842;27;20043;-83
2023/07/22 04:56:50;;;;;;;0.00;0.00;;;12.70;100.00;;;;;;5100194;28;20043;-83
2023/07/22 04:59:16;;;;;;;0.00;0.00;;;12.80;100.00;;;;;;5100529;28;20609;-84
2023/07/22 05:01:43;;;;;;;0.00;0.00;;;12.80;100.00;;;;;;5110429;28;20051;-83
2023/07/22 05:04:10;;;;;;;0.00;0.00;;;12.90;100.00;;;;;;5095239;28;20051;-83
2023/07/22 05:06:37;;;;;;;0.00;0.00;;;12.90;100.00;;;;;;5112690;27;20073;-82
2023/07/22 05:09:04;;;;;;;0.00;0.00;;;12.90;100.00;;;;;;5120071;27;20085;-83
2023/07/22 05:11:31;;;;;;;0.00;0.00;;;12.80;100.00;;;;;;5094376;28;20043;-83
2023/07/22 05:13:58;;;;;;;0.52;0.30;;;12.80;100.00;;;;;;5104960;28;20072;-83
2023/07/22 05:16:25;;;;;;;0.00;0.00;;;12.90;100.00;;;;;;5116175;27;20545;-82
2023/07/22 05:18:52;;;;;;;0.00;0.00;;;13.00;100.00;;;;;;5093357;28;20131;-82
2023/07/22 05:21:19;;;;;;;0.00;0.00;;;13.00;100.00;;;;;;5085368;28;20122;-82
2023/07/22 05:23:46;;;;;;;0.00;0.00;;;13.10;100.00;;;;;;5113401;27;20047;-81
2023/07/22 05:26:13;;;;;;;0.00;0.00;;;13.00;100.00;;;;;;5090472;28;20048;-81
2023/07/22 05:28:40;;;;;;;0.00;0.00;;;13.10;100.00;;;;;;5111399;27;20056;-81
2023/07/22 05:31:06;;;;;;;0.00;0.00;;;13.20;100.00;;;;;;5109227;28;20130;-82
2023/07/22 05:33:34;;;;;;;0.00;0.00;;;13.20;100.00;;;;;;5108913;28;20119;-80
2023/07/22 05:36:00;;;;;;;0.00;0.00;;;13.20;100.00;;;;;;5092015;28;20124;-81
2023/07/22 05:38:27;;;;;;;0.00;0.00;;;13.20;100.00;;;;;;5107125;28;20775;-82
2023/07/22 05:40:54;;;;;;;0.00;0.00;;;13.30;100.00;;;;;;5098594;28;20781;-82
2023/07/22 05:43:22;;;;;;;0.00;0.00;;;13.20;100.00;;;;;;5094217;28;20121;-83
2023/07/22 05:45:49;;;;;;;0.00;0.00;;;13.30;100.00;;;;;;5111473;28;20868;-85
2023/07/22 05:48:16;;;;;;;0.00;0.00;;;13.30;100.00;;;;;;5111366;28;20044;-85
2023/07/22 05:50:43;;;;;;;0.00;0.00;;;13.40;100.00;;;;;;5095013;28;20126;-87
2023/07/22 05:53:10;;;;;;;0.00;0.00;;;13.30;100.00;;;;;;5095865;28;20118;-87
2023/07/22 05:55:37;;;;;;;0.00;0.00;;;13.40;100.00;;;;;;5095381;28;20055;-87
2023/07/22 05:58:19;;;;;;;0.00;0.00;;;13.40;100.00;;;;;;5097149;28;20097;-93
2023/07/22 06:00:46;;;;;;;0.00;0.00;;;13.40;100.00;;;;;;5083645;28;20123;-87
2023/07/22 06:03:13;;;;;;;0.00;0.00;;;13.50;100.00;;;;;;5114754;28;20051;-77
2023/07/22 06:05:40;;;;;;;0.00;0.00;;;13.60;100.00;;;;;;5098156;28;20051;-76
2023/07/22 06:08:07;;;;;;;0.00;0.00;;;13.60;100.00;;;;;;5085834;28;20129;-77
2023/07/22 06:10:34;;;;;;;0.00;0.00;;;13.70;100.00;;;;;;5124841;28;20044;-79
2023/07/22 06:13:01;;;;;;;0.00;0.00;;;13.80;100.00;;;;;;5078295;28;20707;-81
2023/07/22 06:15:28;;;;;;;0.00;0.00;;;14.00;100.00;;;;;;5090403;28;20090;-77
2023/07/22 06:17:55;;;;;;;0.00;0.00;;;14.10;100.00;;;;;;5112634;28;20050;-83
2023/07/22 06:20:22;;;;;;;0.00;0.00;;;14.30;100.00;;;;;;5091418;28;20050;-82
2023/07/22 06:22:49;;;;;;;0.00;0.00;;;14.30;100.00;;;;;;5088402;28;20092;-82
2023/07/22 06:25:16;;;;;;;0.00;0.00;;;14.20;98.70;;;;;;5092449;28;20047;-81
2023/07/22 06:27:43;;;;;;;0.00;0.00;;;14.00;98.50;;;;;;5115429;27;20051;-81
2023/07/22 06:30:10;;;;;;;0.00;0.00;;;14.00;99.10;;;;;;5114460;28;20050;-84
2023/07/22 06:32:38;;;;;;;0.00;0.00;;;13.90;95.20;;;;;;5114982;28;20067;-81
2023/07/22 06:35:05;;;;;;;0.00;0.00;;;13.70;95.70;;;;;;5113908;28;20093;-77
2023/07/22 06:37:32;;;;;;;0.00;0.00;;;13.70;96.20;;;;;;5113915;28;20126;-80
2023/07/22 06:39:59;;;;;;;0.00;0.00;;;13.80;95.80;;;;;;5111599;27;20170;-78
2023/07/22 06:42:27;;;;;;;0.00;0.00;;;13.80;95.30;;;;;;5095125;28;20039;-82
2023/07/22 06:44:54;;;;;;;0.00;0.00;;;13.80;95.60;;;;;;5113972;28;20047;-80
2023/07/22 06:47:20;;;;;;;0.00;0.00;;;14.10;97.70;;;;;;5103530;28;20036;-77
2023/07/22 06:49:47;;;;;;;0.70;0.30;;;14.80;96.50;;;;;;5108847;27;20039;-76
2023/07/22 06:52:14;;;;;;;0.50;0.50;;;15.50;92.20;;;;;;5108979;28;20121;-79
2023/07/22 06:54:41;;;;;;;0.00;0.00;;;15.80;89.60;;;;;;5107374;27;20044;-77
2023/07/22 06:57:08;;;;;;;0.00;0.00;;;15.80;87.90;;;;;;5107317;27;20172;-80
2023/07/22 06:59:35;;;;;;;0.00;0.00;;;15.40;90.60;;;;;;5110878;28;20120;-79
2023/07/22 07:02:04;;;;;;;0.00;0.00;;;15.50;90.30;;;;;;5089945;28;20044;-81
2023/07/22 07:04:31;;;;;;;0.00;0.00;;;15.50;89.90;;;;;;5108348;28;20051;-82
2023/07/22 07:06:59;;;;;;;0.00;0.00;;;15.30;90.30;;;;;;5112648;28;20089;-81
2023/07/22 07:09:26;;;;;;;0.00;0.00;;;15.10;88.70;;;;;;5096129;28;20043;-82
2023/07/22 07:11:56;;;;;;;0.00;0.00;;;15.10;89.30;;;;;;5112285;28;20043;-87
2023/07/22 07:14:27;;;;;;;0.10;0.10;;;15.20;90.70;;;;;;5102855;28;20122;-84
2023/07/22 07:16:54;;;;;;;0.00;0.00;;;15.30;90.70;;;;;;5092559;28;20509;-86
2023/07/22 07:19:21;;;;;;;0.00;0.00;;;15.20;89.00;;;;;;5086460;28;20039;-88
2023/07/22 07:21:48;;;;;;;0.00;0.00;;;15.40;91.00;;;;;;5108897;27;20468;-87
2023/07/22 07:24:15;;;;;;;0.00;0.00;;;15.50;89.70;;;;;;5091990;28;20138;-79
2023/07/22 07:26:41;;;;;;;0.00;0.00;;;15.60;89.20;;;;;;5107483;28;20048;-84
2023/07/22 07:29:09;;;;;;;0.00;0.00;;;15.70;87.10;;;;;;5110329;28;20040;-82
2023/07/22 07:31:36;;;;;;;0.00;0.00;;;16.40;91.00;;;;;;5106424;27;20112;-81
2023/07/22 07:34:04;;;;;;;0.00;0.00;;;17.00;83.70;;;;;;5113287;28;20069;-81
2023/07/22 07:36:32;;;;;;;0.00;0.00;;;16.90;84.40;;;;;;5090977;28;20768;-83
2023/07/22 07:38:59;;;;;;;0.00;0.00;;;16.80;83.30;;;;;;5091018;28;20108;-84
2023/07/22 07:41:26;;;;;;;0.00;0.00;;;16.70;83.40;;;;;;5103332;28;20048;-88
2023/07/22 07:43:53;;;;;;;0.00;0.00;;;17.20;85.40;;;;;;5111634;27;20561;-88
2023/07/22 07:46:29;;;;;;;0.00;0.00;;;17.50;84.30;;;;;;5099192;27;20047;-89
2023/07/22 07:49:00;;;;;;;0.00;0.00;;;17.80;81.80;;;;;;5098535;28;20048;-86
2023/07/22 07:51:29;;;;;;;0.00;0.00;;;17.60;77.80;;;;;;5111250;28;20088;-89
2023/07/22 07:53:58;;;;;;;0.00;0.00;;;17.50;82.30;;;;;;5087619;28;20078;-90
2023/07/22 07:56:25;;;;;;;0.00;0.00;;;17.90;76.50;;;;;;5100493;28;20035;-81
2023/07/22 07:58:53;;;;;;;0.00;0.00;;;17.70;76.00;;;;;;5108730;28;20066;-87
2023/07/22 08:01:21;;;;;;;0.00;0.00;;;17.70;78.90;;;;;;5093296;28;20054;-85
2023/07/22 08:03:49;;;;;;;0.00;0.00;;;17.60;79.50;;;;;;5094023;28;20054;-85
2023/07/22 08:06:16;;;;;;;0.00;0.00;;;17.80;83.30;;;;;;5094729;28;20139;-80
2023/07/22 08:08:46;;;;;;;0.00;0.00;;;18.30;75.40;;;;;;5111095;27;20044;-88
2023/07/22 08:11:14;;;;;;;0.00;0.00;;;17.90;76.40;;;;;;5113173;28;20545;-88
2023/07/22 08:13:43;;;;;;;0.00;0.00;;;18.00;76.20;;;;;;5114328;28;20127;-87
2023/07/22 08:16:12;;;;;;;0.30;0.30;;;17.80;76.00;;;;;;5092973;28;20079;-88
2023/07/22 08:18:40;;;;;;;0.00;0.00;;;17.90;80.10;;;;;;5108574;27;20543;-87
2023/07/22 08:21:07;;;;;;;0.00;0.00;;;18.60;80.50;;;;;;5100521;27;20074;-87
2023/07/22 08:23:36;;;;;;;0.00;0.00;;;19.50;74.20;;;;;;5097202;27;20049;-88
2023/07/22 08:26:07;;;;;;;0.00;0.00;;;20.30;71.10;;;;;;5111316;27;20059;-88
2023/07/22 08:28:34;;;;;;;0.00;0.00;;;19.80;69.40;;;;;;5114192;28;20044;-89
2023/07/22 08:31:01;;;;;;;0.00;0.00;;;19.80;70.70;;;;;;5104412;27;20050;-93
2023/07/22 08:33:28;;;;;;;0.00;0.00;;;19.60;71.90;;;;;;5116304;28;20059;-90
2023/07/22 08:36:08;;;;;;;0.00;0.00;;;19.80;70.10;;;;;;5114304;27;20124;-89
2023/07/22 08:38:36;;;;;;;0.00;0.00;;;19.60;68.80;;;;;;5094778;28;20058;-87
2023/07/22 08:41:03;;;;;;;0.00;0.00;;;19.60;70.10;;;;;;5093668;28;20048;-89
2023/07/22 08:43:30;;;;;;;0.00;0.00;;;19.20;68.00;;;;;;5112436;27;20051;-89
2023/07/22 08:46:01;;;;;;;0.00;0.00;;;19.00;67.20;;;;;;5109858;28;20044;-88
2023/07/22 08:48:32;;;;;;;0.00;0.00;;;18.90;71.40;;;;;;5100203;28;20468;-90
2023/07/22 08:51:17;;;;;;;0.00;0.00;;;18.60;72.20;;;;;;5091424;28;20047;-94
2023/07/22 08:53:45;;;;;;;0.00;0.00;;;19.40;72.80;;;;;;5088025;28;20043;-93
2023/07/22 08:56:26;;;;;;;0.00;0.00;;;20.50;68.20;;;;;;5100920;28;20046;-92
2023/07/22 08:58:55;;;;;;;0.00;0.00;;;21.20;66.60;;;;;;5095653;28;20055;-88
2023/07/22 09:01:23;;;;;;;0.08;0.08;;;21.30;65.00;;;;;;5098795;28;20047;-90
2023/07/22 09:03:52;;;;;;;0.00;0.00;;;21.40;66.70;;;;;;5109878;28;20561;-88
2023/07/22 09:06:20;;;;;;;0.00;0.00;;;22.30;64.60;;;;;;5110177;28;20047;-91
2023/07/22 09:08:48;;;;;;;0.00;0.00;;;22.70;62.40;;;;;;5093999;28;20075;-90
2023/07/22 09:11:15;;;;;;;0.00;0.00;;;23.20;61.80;;;;;;5111938;28;20093;-89
2023/07/22 09:13:46;;;;;;;0.00;0.00;;;22.90;56.50;;;;;;5119167;27;20365;-89
2023/07/22 09:16:13;;;;;;;0.00;0.00;;;23.20;61.50;;;;;;5110968;28;20450;-88
2023/07/22 09:18:40;;;;;;;0.00;0.00;;;23.60;60.50;;;;;;5109354;27;20047;-81
2023/07/22 09:21:08;;;;;;;0.00;0.00;;;24.70;56.10;;;;;;5100752;27;20074;-82
2023/07/22 09:23:36;;;;;;;0.00;0.00;;;24.80;56.50;;;;;;5095123;27;20586;-81
2023/07/22 09:26:12;;;;;;;0.00;0.00;;;24.70;51.40;;;;;;5101888;27;20405;-81
2023/07/22 09:28:52;;;;;;;;;;;24.70;56.50;;;;;;5094704;28;20112;-81
2023/07/22 09:31:21;;;;;;;0.08;0.08;;;24.50;53.50;;;;;;5102403;28;20445;-85
2023/07/22 09:33:49;;;;;;;0.10;0.10;;;24.90;55.10;;;;;;5093068;28;20040;-80
2023/07/22 09:36:16;;;;;;;0.00;0.00;;;25.30;51.30;;;;;;5100318;28;20131;-81
2023/07/22 09:38:43;;;;;;;0.10;0.10;;;25.50;52.60;;;;;;5109235;28;20105;-81
2023/07/22 09:41:10;;;;;;;0.00;0.00;;;25.50;51.30;;;;;;5108098;28;20059;-83
2023/07/22 09:43:38;;;;;;;0.08;0.08;;;25.60;52.20;;;;;;5092245;28;20059;-76
2023/07/22 09:46:11;;;;;;;0.00;0.00;;;26.10;49.90;;;;;;5111276;27;20083;-83
2023/07/22 09:48:45;;;;;;;0.80;0.22;;;25.20;49.60;;;;;;5087925;28;20047;-82
2023/07/22 09:51:16;;;;;;;0.00;0.00;;;24.20;52.30;;;;;;5089885;28;20055;-77
2023/07/22 09:54:00;;;;;;;0.00;0.00;;;24.90;52.70;;;;;;5090818;28;20059;-79
2023/07/22 09:56:27;;;;;;;0.00;0.00;;;25.80;52.30;;;;;;5090005;28;20036;-80
2023/07/22 09:58:55;;;;;;;0.00;0.00;;;25.80;50.00;;;;;;5112214;28;20139;-80
2023/07/22 10:01:25;;;;;;;0.10;0.10;;;25.50;52.00;;;;;;5102526;28;20092;-80
2023/07/22 10:03:56;;;;;;;0.10;0.10;;;25.90;51.90;;;;;;5113904;28;20108;-81
2023/07/22 10:06:29;;;;;;;0.10;0.10;;;26.30;51.90;;;;;;5089488;28;20480;-81
2023/07/22 10:08:57;;;;;;;0.10;0.10;;;27.00;49.20;;;;;;5114216;27;20051;-81
2023/07/22 10:11:27;;;;;;;0.00;0.00;;;26.90;47.30;;;;;;5123735;22;20051;-85
2023/07/22 10:13:55;;;;;;;0.10;0.10;;;27.20;49.30;;;;;;5110815;28;20105;-85
2023/07/22 10:16:23;;;;;;;0.10;0.10;;;28.00;49.80;;;;;;5107262;28;20851;-87
2023/07/22 10:18:51;;;;;;;0.10;0.10;;;28.10;43.60;;;;;;5110478;28;20094;-86
2023/07/22 10:21:18;;;;;;;2.50;0.38;;;27.30;45.00;;;;;;5106507;28;20067;-84
2023/07/22 10:23:47;;;;;;;1.50;1.13;;;26.30;50.10;;;;;;5105798;27;20052;-85
2023/07/22 10:26:19;;;;;;;2.95;1.02;;;27.30;49.70;;;;;;5109527;28;20788;-84
2023/07/22 10:29:08;;;;;;;1.88;0.90;;;27.80;50.80;;;;;;5125655;27;20048;-89
2023/07/22 10:31:35;;;;;;;2.67;1.10;;;27.80;48.80;;;;;;5101082;28;20127;-82
2023/07/22 10:34:03;;;;;;;1.13;0.95;;;27.10;47.10;;;;;;5110844;28;20122;-82
2023/07/22 10:36:30;;;;;;;3.67;1.15;;;25.30;47.60;;;;;;5111979;28;20065;-81
2023/07/22 10:38:59;;;;;;;2.13;1.30;;;24.60;49.90;;;;;;5129861;27;20168;-82
2023/07/22 10:41:30;;;;;;;16.92;2.25;;;25.30;55.70;;;;;;5111764;28;20108;-83
2023/07/22 10:43:59;;;;;;;14.82;2.28;;;26.50;50.40;;;;;;5113083;28;20051;-87
2023/07/22 10:46:36;;;;;;;12.55;2.38;;;27.20;47.00;;;;;;5110830;28;20191;-88
2023/07/22 10:49:13;;;;;;;2.55;0.95;;;27.90;49.00;;;;;;5112762;28;20083;-86
2023/07/22 10:51:41;;;;;;;3.40;1.00;;;28.10;46.60;;;;;;5113735;28;20120;-87
2023/07/22 10:54:12;;;;;;;3.35;1.10;;;27.30;47.90;;;;;;5101226;28;20075;-85
2023/07/22 10:56:44;;;;;;;1.98;1.23;;;26.40;47.10;;;;;;5112534;28;20054;-85
2023/07/22 10:59:12;;;;;;;2.70;1.10;;;25.50;48.20;;;;;;5111430;28;20081;-86
2023/07/22 11:01:45;;;;;;;2.05;1.05;;;24.50;50.80;;;;;;5112658;28;20093;-86
2023/07/22 11:04:30;;;;;;;1.98;1.20;;;24.10;50.20;;;;;;5104507;28;20087;-79
2023/07/22 11:07:08;;;;;;;4.07;1.20;;;23.50;51.70;;;;;;5106028;28;20480;-85
2023/07/22 11:09:37;;;;;;;2.47;1.23;;;23.10;53.90;;;;;;5105371;28;20484;-86
2023/07/22 11:12:07;;;;;;;1.73;1.40;;;22.50;52.80;;;;;;5108855;28;20089;-86
2023/07/22 11:15:14;;;;;;;6.65;1.23;;;22.40;55.60;;;;;;5111047;28;20063;-88
2023/07/22 11:17:41;;;;;;;2.90;0.90;;;22.50;54.40;;;;;;5104098;28;20055;-85
2023/07/22 11:20:08;;;;;;;3.33;1.10;;;21.80;55.00;;;;;;5112232;28;20056;-86
2023/07/22 11:22:38;;;;;;;9.73;2.25;;;21.10;56.20;;;;;;5112599;28;20047;-83
2023/07/22 11:25:06;;;;;;;7.85;1.60;;;20.30;72.20;;;;;;5112096;28;20163;-81
2023/07/22 11:27:33;;;;;;;4.13;1.92;;;19.40;77.60;;;;;;5109292;28;20642;-83
2023/07/22 11:30:03;;;;;;;3.35;2.22;;;18.90;75.30;;;;;;5110766;28;20052;-83
2023/07/22 11:32:32;;;;;;;4.32;2.30;;;18.80;80.80;;;;;;5107368;28;20044;-82
2023/07/22 11:34:59;;;;;;;5.28;2.30;;;19.70;81.00;;;;;;5111435;28;20043;-82
2023/07/22 11:37:29;;;;;;;9.68;2.47;;;19.80;79.10;;;;;;5107289;28;20056;-84
2023/07/22 11:40:02;;;;;;;5.85;2.90;;;19.60;75.60;;;;;;5101505;28;20048;-82
2023/07/22 11:42:30;;;;;;;3.80;2.92;;;19.50;77.10;;;;;;5114380;22;20031;-84
2023/07/22 11:44:57;;;;;;;4.85;2.15;;;19.40;81.20;;;;;;5064497;28;20044;-83
2023/07/22 11:47:32;;;;;;;5.78;2.60;;;19.50;78.20;;;;;;5060897;28;20048;-82
2023/07/22 11:50:00;;;;;;;;;;;19.40;73.90;;;;;;5075442;28;20133;-86
2023/07/22 11:52:26;;;;;;;6.13;2.83;;;19.20;75.50;;;;;;5070959;28;19927;-85
2023/07/22 11:54:53;;;;;;;2.83;2.10;;;18.80;75.30;;;;;;5091219;28;20477;-88
2023/07/22 11:57:22;;;;;;;8.00;2.30;;;18.40;74.60;;;;;;5072800;28;20040;-86
2023/07/22 11:59:51;;;;;;;2.45;1.70;;;17.90;74.20;;;;;;5069264;28;20489;-85
2023/07/22 12:02:28;;;;;;;4.50;1.70;;;17.50;76.40;;;;;;5071077;28;20113;-84
2023/07/22 12:05:01;;;;;;;3.63;1.42;;;17.20;77.40;;;;;;5066860;28;20048;-83
2023/07/22 12:07:33;;;;;;;1.92;1.30;;;17.00;79.80;;;;;;5083297;28;20044;-83
2023/07/22 12:10:02;;;;;;;2.45;1.27;;;16.50;80.10;;;;;;5063516;28;20129;-82
2023/07/22 12:12:49;;;;;;;3.13;1.33;;;16.20;81.40;;;;;;5067604;28;20500;-82
2023/07/22 12:15:19;;;;;;;2.13;1.13;;;15.70;84.20;;;;;;5070113;28;20064;-83
2023/07/22 12:17:47;;;;;;;1.63;0.90;;;15.50;85.60;;;;;;5069525;28;20052;-84
2023/07/22 12:20:16;;;;;;;1.58;0.70;;;15.30;85.20;;;;;;5064502;28;20127;-82
2023/07/22 12:22:43;;;;;;;2.15;0.80;;;15.30;88.40;;;;;;5070634;28;20084;-83
2023/07/22 12:25:10;;;;;;;4.15;0.90;;;15.20;89.40;;;;;;5069602;28;20059;-82
2023/07/22 12:27:37;;;;;;;3.00;1.08;;;15.00;88.30;;;;;;5064390;28;20770;-85
2023/07/22 12:30:06;;;;;;;1.38;0.85;;;14.90;87.60;;;;;;5071591;28;20057;-82
2023/07/22 12:32:34;;;;;;;6.88;1.20;;;14.70;90.90;;;;;;5068510;28;20048;-83
2023/07/22 12:35:02;;;;;;;2.42;1.02;;;14.80;92.70;;;;;;5066893;28;20051;-77
2023/07/22 12:37:30;;;;;;;3.55;0.98;;;14.90;93.30;;;;;;5070341;28;20044;-81
2023/07/22 12:39:57;;;;;;;3.67;0.95;;;15.20;93.50;;;;;;5071728;28;20135;-87
2023/07/22 12:42:24;;;;;;;2.45;1.15;;;15.50;93.50;;;;;;5065072;28;20537;-83
2023/07/22 12:44:51;;;;;;;2.78;1.17;;;15.60;91.70;;;;;;5071925;28;20083;-89
2023/07/22 12:47:18;;;;;;;1.15;0.80;;;16.00;89.40;;;;;;5077434;28;20048;-95
2023/07/22 12:50:00;;;;;;;2.80;0.90;;;16.50;90.20;;;;;;5075084;28;20055;-88